Aérodrome :
LOGIN :

S'inscrire | Disclaimer

   EN    FR    IT 

 










Légende :    VFR   VFR Marginal   IFR   IFR Intensif   IFR Très Intensif
Visi : 
Plafond : 
>= 8 km
>= 3000ft
5 à 8 km
1000 à 3000 ft
1500m à 5 km
500 à 1000 ft
800 à 1500m
200 à 500 ft
< 800m
< 200 ft
Symboles :   Orages  Brouillard  Fortes neiges  Fortes précipitations  Vent > 20 kt
SIGMETs :   Divers  Orages  Givrage  Turbulence  Onde Orograph.  Cendres Volcan.






- Altitude de l'aérodrome : 124 ft
- Code IATA : AVN


LFMV - Avignon Caumont

DERNIER METAR :
  • 151330Z AUTO 16011KT 130V210 9999 FEW045 31/19 Q1012 NOSIG

METARs EXPIRÉS :
  • 151300Z AUTO 18010KT 140V240 9999 FEW046 31/18 Q1013 NOSIG
  • 151230Z AUTO 18012KT 130V220 9999 FEW047 31/17 Q1012 NOSIG
  • 151200Z AUTO 20012KT 160V230 9999 SCT045 31/17 Q1013 NOSIG
  • 151130Z AUTO 17011KT 140V210 9999 BKN043 31/18 Q1013 NOSIG
  • 151100Z AUTO 18012KT 150V210 9999 FEW001 BKN044 30/18 Q1013 NOSIG
  • 151030Z AUTO 16010KT 110V210 9999 BKN044 30/18 Q1013 NOSIG
  • 151000Z AUTO 18010KT 150V230 9999 SCT039 BKN045 29/18 Q1013 NOSIG
  • 150930Z AUTO 18007KT 130V230 9999 SCT039 SCT049 29/18 Q1013 NOSIG
  • 150900Z AUTO 18009KT 140V220 9999 SCT036 OVC049 29/18 Q1013 NOSIG

TAF TAF LFMV
Valide du 15 à 09h jusqu'au 16 à 09h UTC


150800Z 1509/1609 18010KT 9999 SCT035
PROB40
TEMPO 1520/1523 FEW100TCU
BECMG 1520/1522 VRB04KT
TEMPO 1523/1605 4000 BR BKN009
BECMG 1605/1607 34010KT
ATIS : +33 4 90 84 32 84



MET'MAP, la Météo Aéronautique d'un coup d'oeil ! - Copyright ORBIFLY Décembre 2007 - Disclaimer

ORBIFLY MET'MAP TEAM :

Programmation & Développement : Alexandra Zaïnal
Sur une idée originale de : Baudouin d'Aumeries
Soutien technique & logistique : Manuel Goepfert
Assistance : Marc-Olivier Méhu




SOURCES & CREDITS :

   NOAA